sensor_id;sensor_type;location;lat;lon;timestamp;pressure;altitude;pressure_sealevel;temperature;humidity
37792;BME280;29527;55.766;37.570;2023-04-09T00:00:08;100824.34;;;8.50;44.47
37792;BME280;29527;55.766;37.570;2023-04-09T00:02:34;100817.06;;;8.54;44.07
37792;BME280;29527;55.766;37.570;2023-04-09T00:05:00;100823.34;;;8.53;44.37
37792;BME280;29527;55.766;37.570;2023-04-09T00:07:26;100820.03;;;8.47;44.47
37792;BME280;29527;55.766;37.570;2023-04-09T00:09:52;100815.72;;;8.45;44.46
37792;BME280;29527;55.766;37.570;2023-04-09T00:12:17;100822.00;;;8.44;44.86
37792;BME280;29527;55.766;37.570;2023-04-09T00:14:43;100823.81;;;8.43;44.81
37792;BME280;29527;55.766;37.570;2023-04-09T00:17:08;100824.91;;;8.39;44.93
37792;BME280;29527;55.766;37.570;2023-04-09T00:19:33;100821.22;;;8.42;44.65
37792;BME280;29527;55.766;37.570;2023-04-09T00:21:59;100824.91;;;8.39;45.15
37792;BME280;29527;55.766;37.570;2023-04-09T00:24:25;100819.09;;;8.32;44.73
37792;BME280;29527;55.766;37.570;2023-04-09T00:26:50;100825.09;;;8.36;45.07
37792;BME280;29527;55.766;37.570;2023-04-09T00:29:17;100830.59;;;8.33;45.19
37792;BME280;29527;55.766;37.570;2023-04-09T00:31:43;100823.72;;;8.29;45.19
37792;BME280;29527;55.766;37.570;2023-04-09T00:34:08;100822.06;;;8.26;45.32
37792;BME280;29527;55.766;37.570;2023-04-09T00:36:33;100826.28;;;8.30;45.46
37792;BME280;29527;55.766;37.570;2023-04-09T00:38:59;100824.50;;;8.31;45.45
37792;BME280;29527;55.766;37.570;2023-04-09T00:41:25;100818.22;;;8.32;45.32
37792;BME280;29527;55.766;37.570;2023-04-09T00:43:50;100793.78;;;8.24;45.14
37792;BME280;29527;55.766;37.570;2023-04-09T00:46:16;100825.44;;;8.46;45.34
37792;BME280;29527;55.766;37.570;2023-04-09T00:48:42;100818.31;;;8.46;44.98
37792;BME280;29527;55.766;37.570;2023-04-09T00:51:07;100831.53;;;8.50;45.04
37792;BME280;29527;55.766;37.570;2023-04-09T00:53:33;100814.88;;;8.44;44.88
37792;BME280;29527;55.766;37.570;2023-04-09T00:56:00;100824.59;;;8.45;45.15
37792;BME280;29527;55.766;37.570;2023-04-09T00:58:26;100825.63;;;8.43;44.83
37792;BME280;29527;55.766;37.570;2023-04-09T01:00:51;100818.47;;;8.43;45.35
37792;BME280;29527;55.766;37.570;2023-04-09T01:03:17;100823.81;;;8.43;45.17
37792;BME280;29527;55.766;37.570;2023-04-09T01:13:48;100822.47;;;8.52;45.24
37792;BME280;29527;55.766;37.570;2023-04-09T01:16:15;100817.22;;;8.51;45.05
37792;BME280;29527;55.766;37.570;2023-04-09T01:18:49;100825.06;;;8.54;45.01
37792;BME280;29527;55.766;37.570;2023-04-09T01:21:19;100826.00;;;8.53;45.13
37792;BME280;29527;55.766;37.570;2023-04-09T01:23:58;100826.59;;;8.58;44.96
37792;BME280;29527;55.766;37.570;2023-04-09T01:29:22;100825.06;;;8.54;45.01
37792;BME280;29527;55.766;37.570;2023-04-09T01:31:50;100823.50;;;8.50;45.07
37792;BME280;29527;55.766;37.570;2023-04-09T01:34:17;100828.13;;;8.46;45.38
37792;BME280;29527;55.766;37.570;2023-04-09T01:36:49;100828.84;;;8.50;45.77
37792;BME280;29527;55.766;37.570;2023-04-09T01:39:16;100811.41;;;8.42;45.27
37792;BME280;29527;55.766;37.570;2023-04-09T01:41:42;100815.91;;;8.42;45.48
37792;BME280;29527;55.766;37.570;2023-04-09T01:44:08;100820.84;;;8.50;45.51
37792;BME280;29527;55.766;37.570;2023-04-09T01:46:36;100785.41;;;8.30;45.33
37792;BME280;29527;55.766;37.570;2023-04-09T01:49:03;100824.09;;;8.55;45.25
37792;BME280;29527;55.766;37.570;2023-04-09T01:51:31;100830.28;;;8.55;45.30
37792;BME280;29527;55.766;37.570;2023-04-09T01:53:58;100817.91;;;8.54;45.22
37792;BME280;29527;55.766;37.570;2023-04-09T01:56:23;100825.66;;;8.59;45.38
37792;BME280;29527;55.766;37.570;2023-04-09T01:58:49;100833.59;;;8.60;45.45
37792;BME280;29527;55.766;37.570;2023-04-09T02:01:27;100833.94;;;8.70;45.32
37792;BME280;29527;55.766;37.570;2023-04-09T02:04:02;100829.44;;;8.71;45.05
37792;BME280;29527;55.766;37.570;2023-04-09T02:06:51;100833.22;;;8.83;44.97
37792;BME280;29527;55.766;37.570;2023-04-09T02:09:19;100827.66;;;8.71;45.06
37792;BME280;29527;55.766;37.570;2023-04-09T02:11:46;100824.97;;;8.71;45.04
37792;BME280;29527;55.766;37.570;2023-04-09T02:14:14;100822.63;;;8.65;45.25
37792;BME280;29527;55.766;37.570;2023-04-09T02:16:40;100826.19;;;8.66;45.49
37792;BME280;29527;55.766;37.570;2023-04-09T02:19:06;100831.34;;;8.69;45.35
37792;BME280;29527;55.766;37.570;2023-04-09T02:21:32;100831.59;;;8.64;45.55
37792;BME280;29527;55.766;37.570;2023-04-09T02:23:57;100833.41;;;8.64;45.91
37792;BME280;29527;55.766;37.570;2023-04-09T02:26:23;100827.13;;;8.65;45.57
37792;BME280;29527;55.766;37.570;2023-04-09T02:28:49;100831.00;;;8.59;45.41
37792;BME280;29527;55.766;37.570;2023-04-09T02:31:15;100832.81;;;8.58;45.65
37792;BME280;29527;55.766;37.570;2023-04-09T02:33:41;100825.84;;;8.56;46.15
37792;BME280;29527;55.766;37.570;2023-04-09T02:36:10;100835.38;;;8.60;45.92
37792;BME280;29527;55.766;37.570;2023-04-09T02:38:35;100820.13;;;8.62;45.81
37792;BME280;29527;55.766;37.570;2023-04-09T02:41:01;100810.94;;;8.52;45.88
37792;BME280;29527;55.766;37.570;2023-04-09T02:43:26;100826.19;;;8.50;46.30
37792;BME280;29527;55.766;37.570;2023-04-09T02:45:52;100827.91;;;8.51;46.05
37792;BME280;29527;55.766;37.570;2023-04-09T02:48:17;100821.00;;;8.46;46.26
37792;BME280;29527;55.766;37.570;2023-04-09T02:50:43;100788.16;;;8.28;46.14
37792;BME280;29527;55.766;37.570;2023-04-09T02:53:08;100821.84;;;8.47;46.26
37792;BME280;29527;55.766;37.570;2023-04-09T02:55:34;100816.50;;;8.47;46.04
37792;BME280;29527;55.766;37.570;2023-04-09T02:57:59;100820.03;;;8.47;46.35
37792;BME280;29527;55.766;37.570;2023-04-09T03:00:25;100823.50;;;8.50;45.97
37792;BME280;29527;55.766;37.570;2023-04-09T03:02:50;100823.56;;;8.48;46.53
37792;BME280;29527;55.766;37.570;2023-04-09T03:05:16;100815.53;;;8.48;46.19
37792;BME280;29527;55.766;37.570;2023-04-09T03:07:41;100829.44;;;8.55;46.10
37792;BME280;29527;55.766;37.570;2023-04-09T03:10:07;100823.75;;;8.61;46.21
37792;BME280;29527;55.766;37.570;2023-04-09T03:12:32;100826.06;;;8.67;46.38
37792;BME280;29527;55.766;37.570;2023-04-09T03:14:58;100828.41;;;8.73;45.92
37792;BME280;29527;55.766;37.570;2023-04-09T03:17:23;100812.91;;;8.64;45.92
37792;BME280;29527;55.766;37.570;2023-04-09T03:19:52;100830.13;;;8.74;46.06
37792;BME280;29527;55.766;37.570;2023-04-09T03:22:18;100835.03;;;8.82;45.73
37792;BME280;29527;55.766;37.570;2023-04-09T03:24:43;100840.09;;;8.87;45.47
37792;BME280;29527;55.766;37.570;2023-04-09T03:27:09;100830.97;;;8.91;45.72
37792;BME280;29527;55.766;37.570;2023-04-09T03:29:34;100835.03;;;8.98;45.53
37792;BME280;29527;55.766;37.570;2023-04-09T03:32:00;100829.69;;;8.98;45.70
37792;BME280;29527;55.766;37.570;2023-04-09T03:34:25;100832.69;;;9.08;45.53
37792;BME280;29527;55.766;37.570;2023-04-09T03:36:51;100820.69;;;9.15;45.48
37792;BME280;29527;55.766;37.570;2023-04-09T03:39:16;100830.34;;;9.32;44.86
37792;BME280;29527;55.766;37.570;2023-04-09T03:41:42;100830.50;;;9.45;44.59
37792;BME280;29527;55.766;37.570;2023-04-09T03:44:07;100828.03;;;9.57;44.13
37792;BME280;29527;55.766;37.570;2023-04-09T03:46:33;100821.09;;;9.69;44.08
37792;BME280;29527;55.766;37.570;2023-04-09T03:48:58;100801.22;;;9.73;43.34
37792;BME280;29527;55.766;37.570;2023-04-09T03:51:23;100819.38;;;10.26;42.82
37792;BME280;29527;55.766;37.570;2023-04-09T03:53:50;100825.25;;;10.60;42.04
37792;BME280;29527;55.766;37.570;2023-04-09T03:56:16;100821.69;;;11.01;40.92
37792;BME280;29527;55.766;37.570;2023-04-09T03:58:42;100818.31;;;11.25;40.02
37792;BME280;29527;55.766;37.570;2023-04-09T04:01:07;100826.59;;;11.35;40.04
37792;BME280;29527;55.766;37.570;2023-04-09T04:03:33;100823.69;;;11.25;40.12
37792;BME280;29527;55.766;37.570;2023-04-09T04:06:02;100831.19;;;11.20;40.19
37792;BME280;29527;55.766;37.570;2023-04-09T04:08:28;100830.38;;;11.05;40.55
37792;BME280;29527;55.766;37.570;2023-04-09T04:10:54;100826.50;;;10.96;40.82
37792;BME280;29527;55.766;37.570;2023-04-09T04:13:19;100825.75;;;10.94;40.94
37792;BME280;29527;55.766;37.570;2023-04-09T04:15:45;100825.25;;;11.02;40.69
37792;BME280;29527;55.766;37.570;2023-04-09T04:18:10;100825.38;;;11.13;40.37
37792;BME280;29527;55.766;37.570;2023-04-09T04:20:37;100825.19;;;11.29;40.43
37792;BME280;29527;55.766;37.570;2023-04-09T04:23:03;100771.78;;;11.26;39.77
37792;BME280;29527;55.766;37.570;2023-04-09T04:25:29;100818.28;;;12.04;38.43
37792;BME280;29527;55.766;37.570;2023-04-09T04:27:55;100817.47;;;12.41;38.09
37792;BME280;29527;55.766;37.570;2023-04-09T04:30:21;100818.28;;;12.68;37.38
37792;BME280;29527;55.766;37.570;2023-04-09T04:32:47;100809.56;;;12.88;37.06
37792;BME280;29527;55.766;37.570;2023-04-09T04:35:12;100811.44;;;12.99;36.53
37792;BME280;29527;55.766;37.570;2023-04-09T04:37:38;100813.38;;;13.21;36.12
37792;BME280;29527;55.766;37.570;2023-04-09T04:40:06;100820.91;;;13.41;35.83
37792;BME280;29527;55.766;37.570;2023-04-09T04:42:32;100827.38;;;13.85;35.06
37792;BME280;29527;55.766;37.570;2023-04-09T04:44:58;100810.88;;;14.91;32.97
37792;BME280;29527;55.766;37.570;2023-04-09T04:47:23;100803.78;;;16.27;30.74
37792;BME280;29527;55.766;37.570;2023-04-09T04:49:48;100815.53;;;17.85;28.62
37792;BME280;29527;55.766;37.570;2023-04-09T04:52:14;100806.50;;;18.78;27.14
37792;BME280;29527;55.766;37.570;2023-04-09T04:54:40;100800.50;;;18.85;26.81
37792;BME280;29527;55.766;37.570;2023-04-09T04:57:05;100802.09;;;18.59;27.22
37792;BME280;29527;55.766;37.570;2023-04-09T04:59:30;100808.44;;;18.22;27.59
37792;BME280;29527;55.766;37.570;2023-04-09T05:01:56;100810.63;;;18.08;27.86
37792;BME280;29527;55.766;37.570;2023-04-09T05:04:21;100803.47;;;18.17;27.40
37792;BME280;29527;55.766;37.570;2023-04-09T05:06:47;100802.50;;;18.08;27.56
37792;BME280;29527;55.766;37.570;2023-04-09T05:09:12;100820.31;;;17.54;28.22
37792;BME280;29527;55.766;37.570;2023-04-09T05:11:38;100797.22;;;16.81;29.13
37792;BME280;29527;55.766;37.570;2023-04-09T05:14:03;100815.06;;;16.32;29.94
37792;BME280;29527;55.766;37.570;2023-04-09T05:16:30;100818.84;;;15.68;31.06
37792;BME280;29527;55.766;37.570;2023-04-09T05:18:56;100814.72;;;15.10;32.13
37792;BME280;29527;55.766;37.570;2023-04-09T05:21:22;100815.94;;;14.73;32.67
37792;BME280;29527;55.766;37.570;2023-04-09T05:23:47;100817.34;;;14.33;33.54
37792;BME280;29527;55.766;37.570;2023-04-09T05:26:13;100819.81;;;14.02;33.96
37792;BME280;29527;55.766;37.570;2023-04-09T05:28:38;100821.22;;;13.72;34.60
37792;BME280;29527;55.766;37.570;2023-04-09T05:31:03;100825.25;;;13.55;35.06
37792;BME280;29527;55.766;37.570;2023-04-09T05:33:29;100802.28;;;13.26;35.33
37792;BME280;29527;55.766;37.570;2023-04-09T05:35:54;100819.84;;;13.19;35.51
37792;BME280;29527;55.766;37.570;2023-04-09T05:38:20;100825.13;;;12.96;36.25
37792;BME280;29527;55.766;37.570;2023-04-09T05:40:45;100827.19;;;12.92;36.30
37792;BME280;29527;55.766;37.570;2023-04-09T05:43:13;100828.91;;;12.94;36.53
37792;BME280;29527;55.766;37.570;2023-04-09T05:45:38;100823.72;;;13.03;36.42
37792;BME280;29527;55.766;37.570;2023-04-09T05:48:04;100831.25;;;13.34;35.84
37792;BME280;29527;55.766;37.570;2023-04-09T05:50:30;100813.69;;;13.77;34.67
37792;BME280;29527;55.766;37.570;2023-04-09T05:52:55;100835.13;;;15.02;33.22
37792;BME280;29527;55.766;37.570;2023-04-09T05:55:21;100822.69;;;16.27;30.87
37792;BME280;29527;55.766;37.570;2023-04-09T05:57:46;100837.00;;;17.19;29.19
37792;BME280;29527;55.766;37.570;2023-04-09T06:00:12;100832.56;;;17.48;28.59
37792;BME280;29527;55.766;37.570;2023-04-09T06:02:38;100835.16;;;17.40;28.65
37792;BME280;29527;55.766;37.570;2023-04-09T06:05:04;100840.84;;;17.36;28.82
37792;BME280;29527;55.766;37.570;2023-04-09T06:07:29;100839.16;;;17.26;28.93
37792;BME280;29527;55.766;37.570;2023-04-09T06:09:54;100833.56;;;17.07;29.20
37792;BME280;29527;55.766;37.570;2023-04-09T06:12:20;100825.97;;;16.82;29.35
37792;BME280;29527;55.766;37.570;2023-04-09T06:14:47;100842.91;;;16.84;29.61
37792;BME280;29527;55.766;37.570;2023-04-09T06:17:13;100828.69;;;16.82;29.48
37792;BME280;29527;55.766;37.570;2023-04-09T06:19:38;100834.25;;;16.90;29.28
37792;BME280;29527;55.766;37.570;2023-04-09T06:22:04;100831.72;;;16.98;29.37
37792;BME280;29527;55.766;37.570;2023-04-09T06:24:33;100830.88;;;17.07;29.02
37792;BME280;29527;55.766;37.570;2023-04-09T06:26:59;100848.63;;;17.69;28.00
37792;BME280;29527;55.766;37.570;2023-04-09T06:29:24;100841.94;;;18.59;26.88
37792;BME280;29527;55.766;37.570;2023-04-09T06:31:50;100841.88;;;20.04;25.21
37792;BME280;29527;55.766;37.570;2023-04-09T06:34:15;100839.06;;;21.66;23.02
37792;BME280;29527;55.766;37.570;2023-04-09T06:36:41;100840.75;;;23.03;21.36
37792;BME280;29527;55.766;37.570;2023-04-09T06:39:08;100834.13;;;24.58;19.45
37792;BME280;29527;55.766;37.570;2023-04-09T06:41:33;100801.47;;;25.93;17.93
37792;BME280;29527;55.766;37.570;2023-04-09T06:43:59;100837.84;;;27.00;17.15
37792;BME280;29527;55.766;37.570;2023-04-09T06:46:25;100845.31;;;27.67;16.20
37792;BME280;29527;55.766;37.570;2023-04-09T06:48:50;100840.06;;;28.51;15.82
37792;BME280;29527;55.766;37.570;2023-04-09T06:51:16;100846.78;;;29.07;15.19
37792;BME280;29527;55.766;37.570;2023-04-09T06:53:41;100822.31;;;29.18;14.84
37792;BME280;29527;55.766;37.570;2023-04-09T06:56:07;100840.28;;;29.78;14.23
37792;BME280;29527;55.766;37.570;2023-04-09T06:58:32;100839.78;;;29.88;14.03
37792;BME280;29527;55.766;37.570;2023-04-09T07:00:58;100812.91;;;29.26;14.14
37792;BME280;29527;55.766;37.570;2023-04-09T07:03:24;100851.13;;;28.90;14.90
37792;BME280;29527;55.766;37.570;2023-04-09T07:05:53;100828.84;;;28.46;15.41
37792;BME280;29527;55.766;37.570;2023-04-09T07:08:18;100850.25;;;28.44;15.59
37792;BME280;29527;55.766;37.570;2023-04-09T07:10:44;100837.41;;;28.24;15.33
37792;BME280;29527;55.766;37.570;2023-04-09T07:13:11;100816.53;;;27.35;15.89
37792;BME280;29527;55.766;37.570;2023-04-09T07:15:37;100836.03;;;26.65;16.72
37792;BME280;29527;55.766;37.570;2023-04-09T07:18:03;100852.31;;;26.25;16.92
37792;BME280;29527;55.766;37.570;2023-04-09T07:20:28;100846.63;;;25.41;17.79
37792;BME280;29527;55.766;37.570;2023-04-09T07:22:54;100845.69;;;24.90;18.52
37792;BME280;29527;55.766;37.570;2023-04-09T07:25:19;100855.38;;;24.56;18.57
37792;BME280;29527;55.766;37.570;2023-04-09T07:27:45;100850.97;;;25.13;17.87
37792;BME280;29527;55.766;37.570;2023-04-09T07:30:11;100843.22;;;25.39;17.74
37792;BME280;29527;55.766;37.570;2023-04-09T07:32:36;100859.03;;;25.15;17.70
37792;BME280;29527;55.766;37.570;2023-04-09T07:35:06;100856.22;;;25.80;17.39
37792;BME280;29527;55.766;37.570;2023-04-09T07:37:32;100855.69;;;27.78;15.62
37792;BME280;29527;55.766;37.570;2023-04-09T07:39:57;100840.16;;;29.15;14.40
37792;BME280;29527;55.766;37.570;2023-04-09T07:42:23;100852.78;;;28.98;14.42
37792;BME280;29527;55.766;37.570;2023-04-09T07:44:48;100805.81;;;28.79;14.38
37792;BME280;29527;55.766;37.570;2023-04-09T07:47:14;100850.16;;;29.10;14.27
37792;BME280;29527;55.766;37.570;2023-04-09T07:49:40;100856.97;;;29.64;13.87
37792;BME280;29527;55.766;37.570;2023-04-09T07:52:06;100850.09;;;30.18;13.58
37792;BME280;29527;55.766;37.570;2023-04-09T07:54:33;100843.44;;;30.00;13.47
37792;BME280;29527;55.766;37.570;2023-04-09T07:56:59;100849.72;;;30.33;13.57
37792;BME280;29527;55.766;37.570;2023-04-09T07:59:26;100848.88;;;31.55;12.53
37792;BME280;29527;55.766;37.570;2023-04-09T08:01:52;100839.50;;;31.68;11.90
37792;BME280;29527;55.766;37.570;2023-04-09T08:04:18;100846.69;;;31.45;12.07
37792;BME280;29527;55.766;37.570;2023-04-09T08:06:43;100838.66;;;30.51;12.70
37792;BME280;29527;55.766;37.570;2023-04-09T08:09:14;100843.13;;;29.14;13.82
37792;BME280;29527;55.766;37.570;2023-04-09T08:11:40;100821.81;;;27.77;14.79
37792;BME280;29527;55.766;37.570;2023-04-09T08:14:06;100846.03;;;26.86;15.74
37792;BME280;29527;55.766;37.570;2023-04-09T08:16:38;100838.78;;;26.16;16.37
37792;BME280;29527;55.766;37.570;2023-04-09T08:19:04;100835.13;;;25.30;16.96
37792;BME280;29527;55.766;37.570;2023-04-09T08:21:30;100834.47;;;24.70;17.74
37792;BME280;29527;55.766;37.570;2023-04-09T08:23:56;100828.03;;;24.26;18.34
37792;BME280;29527;55.766;37.570;2023-04-09T08:26:25;100838.75;;;23.82;18.17
37792;BME280;29527;55.766;37.570;2023-04-09T08:28:51;100829.00;;;23.26;19.03
37792;BME280;29527;55.766;37.570;2023-04-09T08:31:16;100829.78;;;22.57;19.78
37792;BME280;29527;55.766;37.570;2023-04-09T08:33:41;100816.81;;;22.02;20.11
37792;BME280;29527;55.766;37.570;2023-04-09T08:36:08;100832.41;;;21.69;20.41
37792;BME280;29527;55.766;37.570;2023-04-09T08:38:33;100826.09;;;21.18;21.02
37792;BME280;29527;55.766;37.570;2023-04-09T08:40:59;100828.38;;;20.72;21.82
37792;BME280;29527;55.766;37.570;2023-04-09T08:43:25;100830.81;;;20.40;21.69
37792;BME280;29527;55.766;37.570;2023-04-09T08:45:52;100816.75;;;19.84;23.03
37792;BME280;29527;55.766;37.570;2023-04-09T08:48:23;100829.41;;;19.93;23.11
37792;BME280;29527;55.766;37.570;2023-04-09T08:50:49;100830.00;;;20.05;22.68
37792;BME280;29527;55.766;37.570;2023-04-09T08:53:15;100828.19;;;20.22;22.35
37792;BME280;29527;55.766;37.570;2023-04-09T08:55:44;100824.00;;;20.36;22.08
37792;BME280;29527;55.766;37.570;2023-04-09T08:58:10;100814.72;;;20.12;22.38
37792;BME280;29527;55.766;37.570;2023-04-09T09:00:36;100816.72;;;20.02;22.40
37792;BME280;29527;55.766;37.570;2023-04-09T09:03:06;100821.84;;;19.87;22.30
37792;BME280;29527;55.766;37.570;2023-04-09T09:05:43;100830.75;;;19.71;22.39
37792;BME280;29527;55.766;37.570;2023-04-09T09:08:11;100820.81;;;19.35;23.09
37792;BME280;29527;55.766;37.570;2023-04-09T09:10:37;100821.16;;;19.14;23.47
37792;BME280;29527;55.766;37.570;2023-04-09T09:13:16;100826.31;;;19.25;23.20
37792;BME280;29527;55.766;37.570;2023-04-09T09:15:41;100812.94;;;19.05;23.70
37792;BME280;29527;55.766;37.570;2023-04-09T09:18:07;100811.22;;;19.04;23.88
37792;BME280;29527;55.766;37.570;2023-04-09T09:20:33;100802.94;;;19.06;23.47
37792;BME280;29527;55.766;37.570;2023-04-09T09:22:58;100817.56;;;19.13;23.85
37792;BME280;29527;55.766;37.570;2023-04-09T09:25:24;100808.22;;;19.07;23.70
37792;BME280;29527;55.766;37.570;2023-04-09T09:27:51;100799.25;;;18.97;23.75
37792;BME280;29527;55.766;37.570;2023-04-09T09:30:21;100804.84;;;18.96;23.61
37792;BME280;29527;55.766;37.570;2023-04-09T09:32:51;100799.56;;;18.94;24.04
37792;BME280;29527;55.766;37.570;2023-04-09T09:35:16;100796.00;;;18.93;23.98
37792;BME280;29527;55.766;37.570;2023-04-09T09:37:42;100820.94;;;18.97;24.51
37792;BME280;29527;55.766;37.570;2023-04-09T09:40:08;100802.28;;;18.76;24.85
37792;BME280;29527;55.766;37.570;2023-04-09T09:42:33;100778.03;;;18.46;25.20
37792;BME280;29527;55.766;37.570;2023-04-09T09:45:00;100797.03;;;18.46;24.84
37792;BME280;29527;55.766;37.570;2023-04-09T09:47:27;100805.16;;;18.46;24.88
37792;BME280;29527;55.766;37.570;2023-04-09T09:49:53;100788.44;;;18.51;24.73
37792;BME280;29527;55.766;37.570;2023-04-09T09:52:24;100799.69;;;18.74;24.55
37792;BME280;29527;55.766;37.570;2023-04-09T09:54:51;100787.25;;;18.82;24.31
37792;BME280;29527;55.766;37.570;2023-04-09T09:57:21;100789.66;;;19.03;23.83
37792;BME280;29527;55.766;37.570;2023-04-09T09:59:53;100783.97;;;19.14;23.68
37792;BME280;29527;55.766;37.570;2023-04-09T10:02:22;100792.97;;;19.33;23.31
37792;BME280;29527;55.766;37.570;2023-04-09T10:04:49;100800.47;;;19.57;23.31
37792;BME280;29527;55.766;37.570;2023-04-09T10:07:18;100798.00;;;19.72;22.97
37792;BME280;29527;55.766;37.570;2023-04-09T10:09:48;100797.72;;;19.84;23.21
37792;BME280;29527;55.766;37.570;2023-04-09T10:12:15;100782.53;;;19.73;23.23
37792;BME280;29527;55.766;37.570;2023-04-09T10:14:42;100768.84;;;19.30;23.64
37792;BME280;29527;55.766;37.570;2023-04-09T10:17:09;100748.41;;;18.99;24.03
37792;BME280;29527;55.766;37.570;2023-04-09T10:19:39;100794.41;;;19.01;24.37
37792;BME280;29527;55.766;37.570;2023-04-09T10:22:12;100784.50;;;18.63;25.01
37792;BME280;29527;55.766;37.570;2023-04-09T10:24:38;100778.03;;;18.28;25.43
37792;BME280;29527;55.766;37.570;2023-04-09T10:27:08;100789.22;;;18.15;25.70
37792;BME280;29527;55.766;37.570;2023-04-09T10:29:44;100783.47;;;18.18;25.61
37792;BME280;29527;55.766;37.570;2023-04-09T10:32:10;100777.81;;;18.12;25.99
37792;BME280;29527;55.766;37.570;2023-04-09T10:34:41;100768.59;;;17.94;25.48
37792;BME280;29527;55.766;37.570;2023-04-09T10:37:07;100774.75;;;17.87;25.71
37792;BME280;29527;55.766;37.570;2023-04-09T10:39:38;100768.28;;;17.98;25.44
37792;BME280;29527;55.766;37.570;2023-04-09T10:42:07;100772.25;;;18.13;25.46
37792;BME280;29527;55.766;37.570;2023-04-09T10:44:38;100774.50;;;18.18;25.21
37792;BME280;29527;55.766;37.570;2023-04-09T10:47:06;100773.44;;;18.29;24.74
37792;BME280;29527;55.766;37.570;2023-04-09T10:49:40;100773.13;;;18.60;24.46
37792;BME280;29527;55.766;37.570;2023-04-09T10:52:07;100769.97;;;18.83;24.52
37792;BME280;29527;55.766;37.570;2023-04-09T10:54:38;100768.09;;;19.01;24.15
37792;BME280;29527;55.766;37.570;2023-04-09T10:59:40;100780.88;;;19.27;24.03
37792;BME280;29527;55.766;37.570;2023-04-09T11:02:19;100775.69;;;19.16;23.65
37792;BME280;29527;55.766;37.570;2023-04-09T11:07:23;100771.56;;;18.75;24.26
37792;BME280;29527;55.766;37.570;2023-04-09T11:09:49;100771.50;;;18.67;24.36
37792;BME280;29527;55.766;37.570;2023-04-09T11:12:15;100769.16;;;18.54;24.59
37792;BME280;29527;55.766;37.570;2023-04-09T11:14:41;100763.41;;;18.39;24.72
37792;BME280;29527;55.766;37.570;2023-04-09T11:17:06;100772.59;;;18.28;24.81
37792;BME280;29527;55.766;37.570;2023-04-09T11:19:32;100780.38;;;18.13;24.87
37792;BME280;29527;55.766;37.570;2023-04-09T11:21:58;100764.88;;;17.96;25.29
37792;BME280;29527;55.766;37.570;2023-04-09T11:24:24;100763.34;;;17.83;25.21
37792;BME280;29527;55.766;37.570;2023-04-09T11:26:49;100770.47;;;17.84;25.20
37792;BME280;29527;55.766;37.570;2023-04-09T11:29:15;100778.47;;;17.76;25.06
37792;BME280;29527;55.766;37.570;2023-04-09T11:31:43;100776.78;;;17.75;25.37
37792;BME280;29527;55.766;37.570;2023-04-09T11:34:09;100773.09;;;17.66;25.48
37792;BME280;29527;55.766;37.570;2023-04-09T11:36:36;100748.03;;;17.54;25.45
37792;BME280;29527;55.766;37.570;2023-04-09T11:39:02;100766.25;;;17.72;25.43
37792;BME280;29527;55.766;37.570;2023-04-09T11:41:46;100764.91;;;17.86;25.26
37792;BME280;29527;55.766;37.570;2023-04-09T11:44:12;100738.09;;;17.55;25.54
37792;BME280;29527;55.766;37.570;2023-04-09T11:46:38;100766.84;;;17.65;25.62
37792;BME280;29527;55.766;37.570;2023-04-09T11:49:04;100757.44;;;17.60;25.63
37792;BME280;29527;55.766;37.570;2023-04-09T11:51:30;100759.44;;;17.58;25.42
37792;BME280;29527;55.766;37.570;2023-04-09T11:54:05;100756.56;;;17.59;25.34
37792;BME280;29527;55.766;37.570;2023-04-09T11:56:31;100755.75;;;17.49;25.74
37792;BME280;29527;55.766;37.570;2023-04-09T11:58:57;100754.66;;;17.42;25.71
37792;BME280;29527;55.766;37.570;2023-04-09T12:01:23;100751.38;;;17.38;25.87
37792;BME280;29527;55.766;37.570;2023-04-09T12:03:52;100756.06;;;17.46;25.92
37792;BME280;29527;55.766;37.570;2023-04-09T12:06:22;100753.34;;;17.46;25.77
37792;BME280;29527;55.766;37.570;2023-04-09T12:08:52;100749.22;;;17.42;25.71
37792;BME280;29527;55.766;37.570;2023-04-09T12:11:18;100751.34;;;17.48;25.74
37792;BME280;29527;55.766;37.570;2023-04-09T12:13:45;100744.91;;;17.59;25.56
37792;BME280;29527;55.766;37.570;2023-04-09T12:16:11;100750.13;;;17.70;25.52
37792;BME280;29527;55.766;37.570;2023-04-09T12:18:38;100738.44;;;17.79;25.47
37792;BME280;29527;55.766;37.570;2023-04-09T12:21:04;100741.41;;;17.86;25.21
37792;BME280;29527;55.766;37.570;2023-04-09T12:23:31;100745.09;;;17.85;25.22
37792;BME280;29527;55.766;37.570;2023-04-09T12:25:56;100740.41;;;17.87;25.23
37792;BME280;29527;55.766;37.570;2023-04-09T12:28:25;100708.66;;;17.70;25.18
37792;BME280;29527;55.766;37.570;2023-04-09T12:30:51;100737.41;;;17.81;25.78
37792;BME280;29527;55.766;37.570;2023-04-09T12:33:16;100738.56;;;17.78;25.64
37792;BME280;29527;55.766;37.570;2023-04-09T12:35:42;100706.00;;;17.60;25.61
37792;BME280;29527;55.766;37.570;2023-04-09T12:38:07;100728.91;;;17.75;25.49
37792;BME280;29527;55.766;37.570;2023-04-09T12:40:34;100736.56;;;17.80;25.61
37792;BME280;29527;55.766;37.570;2023-04-09T12:43:00;100735.31;;;17.74;25.40
37792;BME280;29527;55.766;37.570;2023-04-09T12:45:26;100736.66;;;17.60;25.76
37792;BME280;29527;55.766;37.570;2023-04-09T12:47:52;100734.91;;;17.59;25.46
37792;BME280;29527;55.766;37.570;2023-04-09T12:50:17;100744.03;;;17.58;25.68
37792;BME280;29527;55.766;37.570;2023-04-09T12:52:44;100734.69;;;17.53;25.85
37792;BME280;29527;55.766;37.570;2023-04-09T12:55:10;100728.00;;;17.37;25.91